createdAt,value
2023-04-02T00:01:31.719Z,98987.80
2023-04-02T00:04:11.643Z,98990.87
2023-04-02T00:06:44.361Z,98991.08
2023-04-02T00:09:14.784Z,98987.27
2023-04-02T00:11:50.130Z,98988.83
2023-04-02T00:14:30.084Z,98989.79
2023-04-02T00:16:59.968Z,98992.16
2023-04-02T00:19:49.725Z,98995.06
2023-04-02T00:22:24.748Z,98993.28
2023-04-02T00:24:54.277Z,98995.67
2023-04-02T00:27:23.341Z,98994.60
2023-04-02T00:29:55.731Z,98995.61
2023-04-02T00:32:31.533Z,98997.52
2023-04-02T00:34:59.502Z,98997.60
2023-04-02T00:37:28.742Z,98996.36
2023-04-02T00:40:01.457Z,98994.94
2023-04-02T00:42:32.831Z,98994.90
2023-04-02T00:45:04.023Z,98997.27
2023-04-02T00:47:34.577Z,98995.02
2023-04-02T00:50:11.703Z,98993.45
2023-04-02T00:52:39.967Z,98991.91
2023-04-02T00:55:16.289Z,98995.84
2023-04-02T00:57:44.835Z,98995.40
2023-04-02T01:00:29.837Z,98998.77
2023-04-02T01:03:16.159Z,99001.99
2023-04-02T01:06:10.380Z,99004.91
2023-04-02T01:08:57.222Z,99006.47
2023-04-02T01:11:44.729Z,99010.71
2023-04-02T01:14:43.900Z,99008.33
2023-04-02T01:17:43.038Z,99013.30
2023-04-02T01:20:49.007Z,99009.60
2023-04-02T01:23:21.520Z,99009.60
2023-04-02T01:25:54.992Z,99009.83
2023-04-02T01:28:27.030Z,99010.67
2023-04-02T01:30:56.631Z,99008.43
2023-04-02T01:33:32.444Z,99006.98
2023-04-02T01:36:10.615Z,99012.00
2023-04-02T01:38:47.826Z,99015.37
2023-04-02T01:41:29.574Z,99011.46
2023-04-02T01:44:07.685Z,99010.05
2023-04-02T01:46:38.400Z,99009.56
2023-04-02T01:49:15.219Z,99009.13
2023-04-02T01:51:44.749Z,99007.43
2023-04-02T01:54:15.992Z,99009.75
2023-04-02T01:56:44.438Z,99012.91
2023-04-02T01:59:13.200Z,99012.34
2023-04-02T02:01:44.392Z,99013.63
2023-04-02T02:04:13.510Z,99012.71
2023-04-02T02:06:42.555Z,99009.45
2023-04-02T02:09:15.058Z,99013.08
2023-04-02T02:11:43.209Z,99006.97
2023-04-02T02:14:30.031Z,99006.34
2023-04-02T02:17:02.266Z,99009.38
2023-04-02T02:19:58.472Z,99011.50
2023-04-02T02:22:34.732Z,99010.63
2023-04-02T02:25:06.193Z,99012.90
2023-04-02T02:28:09.149Z,99012.70
2023-04-02T02:30:47.585Z,99015.20
2023-04-02T02:33:25.255Z,99016.28
2023-04-02T02:36:07.782Z,99015.16
2023-04-02T02:38:44.642Z,99012.39
2023-04-02T02:41:30.538Z,99012.55
2023-04-02T02:44:13.734Z,99013.95
2023-04-02T02:46:50.549Z,99014.08
2023-04-02T02:49:21.936Z,99017.64
2023-04-02T02:52:14.114Z,99021.63
2023-04-02T02:54:53.149Z,99015.82
2023-04-02T02:57:26.151Z,99020.62
2023-04-02T02:59:55.930Z,99019.58
2023-04-02T03:02:24.489Z,99019.33
2023-04-02T03:04:53.518Z,99019.70
2023-04-02T03:07:25.315Z,99020.23
2023-04-02T03:09:53.393Z,99018.40
2023-04-02T03:12:43.625Z,99020.98
2023-04-02T03:15:13.818Z,99030.90
2023-04-02T03:17:48.628Z,99029.89
2023-04-02T03:20:30.290Z,99031.85
2023-04-02T03:23:10.496Z,99035.23
2023-04-02T03:26:02.911Z,99035.53
2023-04-02T03:28:32.912Z,99038.77
2023-04-02T03:31:26.264Z,99035.24
2023-04-02T03:33:59.467Z,99038.73
2023-04-02T03:36:32.117Z,99040.98
2023-04-02T03:39:26.986Z,99039.73
2023-04-02T03:42:05.855Z,99041.67
2023-04-02T03:44:39.318Z,99042.27
2023-04-02T03:47:17.102Z,99047.93
2023-04-02T03:50:23.897Z,99047.67
2023-04-02T03:52:53.990Z,99054.19
2023-04-02T03:55:24.131Z,99057.64
2023-04-02T03:58:10.808Z,99058.28
2023-04-02T04:00:55.927Z,99059.78
2023-04-02T04:03:41.865Z,99062.77
2023-04-02T04:06:31.386Z,99067.76
2023-04-02T04:09:19.226Z,99067.65
2023-04-02T04:12:01.964Z,99068.43
2023-04-02T04:14:37.256Z,99073.34
2023-04-02T04:17:13.793Z,99072.77
2023-04-02T04:19:55.288Z,99074.76
2023-04-02T04:22:33.358Z,99076.71
2023-04-02T04:25:29.393Z,99077.25
2023-04-02T04:28:05.755Z,99083.22
2023-04-02T04:30:46.990Z,99084.41
2023-04-02T04:33:26.392Z,99082.17
2023-04-02T04:35:59.517Z,99080.20
2023-04-02T04:38:39.413Z,99081.06
2023-04-02T04:41:12.831Z,99084.17
2023-04-02T04:43:43.090Z,99084.74
2023-04-02T04:46:17.193Z,99088.07
2023-04-02T04:49:17.761Z,99090.95
2023-04-02T04:51:50.779Z,99089.90
2023-04-02T04:54:20.084Z,99089.05
2023-04-02T04:56:54.000Z,99090.79
2023-04-02T04:59:25.938Z,99094.23
2023-04-02T05:02:05.739Z,99098.14
2023-04-02T05:04:37.457Z,99097.45
2023-04-02T05:07:23.902Z,99101.51
2023-04-02T05:10:10.415Z,99102.77
2023-04-02T05:13:07.539Z,99101.92
2023-04-02T05:15:41.845Z,99101.39
2023-04-02T05:18:32.300Z,99106.14
2023-04-02T05:21:23.785Z,99105.38
2023-04-02T05:23:54.179Z,99107.05
2023-04-02T05:26:30.338Z,99108.98
2023-04-02T05:29:27.726Z,99111.38
2023-04-02T05:32:01.906Z,99109.67
2023-04-02T05:34:33.073Z,99109.65
2023-04-02T05:37:07.095Z,99110.34
2023-04-02T05:39:37.213Z,99110.80
2023-04-02T05:42:06.543Z,99115.44
2023-04-02T05:45:13.930Z,99116.42
2023-04-02T05:47:43.197Z,99113.89
2023-04-02T05:50:25.223Z,99113.80
2023-04-02T05:53:22.253Z,99117.66
2023-04-02T05:55:53.252Z,99117.80
2023-04-02T05:58:35.958Z,99118.42
2023-04-02T06:01:35.213Z,99120.96
2023-04-02T06:04:36.500Z,99125.50
2023-04-02T06:07:25.544Z,99122.68
2023-04-02T06:10:00.487Z,99128.67
2023-04-02T06:12:40.070Z,99128.67
2023-04-02T06:15:20.704Z,99129.98
2023-04-02T06:17:59.881Z,99129.89
2023-04-02T06:20:28.673Z,99131.20
2023-04-02T06:23:04.206Z,99134.90
2023-04-02T06:25:46.342Z,99134.38
2023-04-02T06:28:24.623Z,99136.47
2023-04-02T06:30:57.991Z,99139.68
2023-04-02T06:33:27.327Z,99143.59
2023-04-02T06:35:54.760Z,99143.73
2023-04-02T06:38:30.043Z,99145.63
2023-04-02T06:40:59.722Z,99147.28
2023-04-02T06:44:09.981Z,99148.38
2023-04-02T06:46:56.869Z,99151.23
2023-04-02T06:49:37.113Z,99148.25
2023-04-02T06:52:10.899Z,99150.79
2023-04-02T06:54:39.140Z,99151.66
2023-04-02T06:57:09.589Z,99155.55
2023-04-02T06:59:40.554Z,99154.80
2023-04-02T07:02:34.754Z,99157.77
2023-04-02T07:05:08.734Z,99160.91
2023-04-02T07:07:38.950Z,99159.11
2023-04-02T07:10:10.037Z,99168.35
2023-04-02T07:12:38.488Z,99165.65
2023-04-02T07:15:15.008Z,99170.20
2023-04-02T07:17:43.550Z,99168.46
2023-04-02T07:20:41.641Z,99168.02
2023-04-02T07:23:14.848Z,99175.00
2023-04-02T07:25:44.539Z,99175.19
2023-04-02T07:28:13.722Z,99175.31
2023-04-02T07:30:41.596Z,99178.91
2023-04-02T07:33:16.647Z,99183.77
2023-04-02T07:35:44.433Z,99180.49
2023-04-02T07:38:11.923Z,99186.23
2023-04-02T07:40:39.756Z,99186.21
2023-04-02T07:43:07.354Z,99182.29
2023-04-02T07:45:35.857Z,99179.85
2023-04-02T07:48:07.665Z,99189.40
2023-04-02T07:50:35.547Z,99185.59
2023-04-02T07:53:03.603Z,99188.23
2023-04-02T07:55:33.556Z,99186.19
2023-04-02T07:58:01.532Z,99185.06
2023-04-02T08:00:30.028Z,99189.48
2023-04-02T08:03:17.291Z,99184.90
2023-04-02T08:05:55.883Z,99182.71
2023-04-02T08:08:23.808Z,99184.27
2023-04-02T08:10:51.309Z,99182.98
2023-04-02T08:13:20.156Z,99184.73
2023-04-02T08:15:47.842Z,99186.35
2023-04-02T08:18:15.466Z,99192.91
2023-04-02T08:20:43.041Z,99195.73
2023-04-02T08:23:16.655Z,99193.72
2023-04-02T08:25:45.479Z,99193.67
2023-04-02T08:28:13.591Z,99191.08
2023-04-02T08:30:44.705Z,99195.75
2023-04-02T08:33:12.653Z,99195.95
2023-04-02T08:35:40.640Z,99199.69
2023-04-02T08:38:14.395Z,99202.17
2023-04-02T08:40:43.995Z,99201.67
2023-04-02T08:43:49.335Z,99204.92
2023-04-02T08:46:27.220Z,99201.09
2023-04-02T08:48:58.984Z,99206.66
2023-04-02T08:51:34.696Z,99206.63
2023-04-02T08:54:13.357Z,99207.25
2023-04-02T08:56:44.046Z,99209.99
2023-04-02T08:59:32.821Z,99212.58
2023-04-02T09:02:12.178Z,99214.81
2023-04-02T09:04:41.218Z,99214.30
2023-04-02T09:07:12.303Z,99220.04
2023-04-02T09:09:40.273Z,99224.80
2023-04-02T09:12:18.351Z,99225.70
2023-04-02T09:14:51.046Z,99227.58
2023-04-02T09:17:23.151Z,99229.41
2023-04-02T09:20:16.934Z,99230.64
2023-04-02T09:22:53.373Z,99233.17
2023-04-02T09:25:29.424Z,99236.23
2023-04-02T09:28:03.807Z,99233.76
2023-04-02T09:30:31.825Z,99238.42
2023-04-02T09:33:07.300Z,99235.81
2023-04-02T09:35:54.882Z,99238.16
2023-04-02T09:38:31.629Z,99238.48
2023-04-02T09:41:07.101Z,99236.61
2023-04-02T09:43:36.549Z,99238.97
2023-04-02T09:46:13.180Z,99243.65
2023-04-02T09:48:45.358Z,99241.01
2023-04-02T09:51:21.192Z,99244.41
2023-04-02T09:53:50.349Z,99245.06
2023-04-02T09:56:22.877Z,99246.92
2023-04-02T09:59:13.183Z,99252.86
2023-04-02T10:01:57.008Z,99251.78
2023-04-02T10:04:44.807Z,99253.03
2023-04-02T10:07:43.411Z,99252.52
2023-04-02T10:10:36.021Z,99253.61
2023-04-02T10:13:18.508Z,99251.95
2023-04-02T10:16:00.810Z,99256.74
2023-04-02T10:18:49.400Z,99251.80
2023-04-02T10:21:19.553Z,99256.79
2023-04-02T10:23:48.291Z,99256.14
2023-04-02T10:26:56.349Z,99256.81
2023-04-02T10:29:27.190Z,99258.89
2023-04-02T10:32:23.143Z,99260.48
2023-04-02T10:35:03.345Z,99265.10
2023-04-02T10:37:49.262Z,99270.30
2023-04-02T10:40:35.403Z,99275.45
2023-04-02T10:43:23.998Z,99278.27
2023-04-02T10:46:08.784Z,99276.70
2023-04-02T10:48:45.174Z,99273.33
2023-04-02T10:51:37.304Z,99281.43
2023-04-02T10:54:13.878Z,99272.24
2023-04-02T10:56:51.051Z,99276.01
2023-04-02T10:59:22.669Z,99279.29
2023-04-02T11:01:51.244Z,99278.15
2023-04-02T11:04:24.921Z,99279.47
2023-04-02T11:07:13.172Z,99280.62
2023-04-02T11:09:45.179Z,99281.58
2023-04-02T11:12:43.038Z,99278.08
2023-04-02T11:15:18.295Z,99277.89
2023-04-02T11:17:46.338Z,99275.28
2023-04-02T11:20:43.468Z,99277.91
2023-04-02T11:23:20.679Z,99279.23
2023-04-02T11:25:48.316Z,99276.63
2023-04-02T11:28:25.112Z,99278.40
2023-04-02T11:30:53.050Z,99282.48
2023-04-02T11:33:39.836Z,99283.35
2023-04-02T11:36:48.799Z,99282.92
2023-04-02T11:39:51.354Z,99284.50
2023-04-02T11:42:19.577Z,99292.86
2023-04-02T11:44:47.070Z,99292.07
2023-04-02T11:47:33.154Z,99292.98
2023-04-02T11:50:02.400Z,99295.05
2023-04-02T11:52:34.200Z,99297.02
2023-04-02T11:55:04.710Z,99296.92
2023-04-02T11:58:02.154Z,99297.52
2023-04-02T12:01:04.794Z,99297.74
2023-04-02T12:03:35.990Z,99298.66
2023-04-02T12:06:21.448Z,99299.90
2023-04-02T12:09:27.392Z,99296.41
2023-04-02T12:11:56.968Z,99302.66
2023-04-02T12:14:43.855Z,99296.30
2023-04-02T12:17:31.042Z,99297.00
2023-04-02T12:20:09.330Z,99295.23
2023-04-02T12:22:46.233Z,99295.90
2023-04-02T12:25:29.637Z,99305.73
2023-04-02T12:28:17.740Z,99307.55
2023-04-02T12:30:49.346Z,99311.08
2023-04-02T12:33:20.846Z,99310.08
2023-04-02T12:35:52.797Z,99312.14
2023-04-02T12:38:24.514Z,99308.86
2023-04-02T12:41:00.131Z,99309.52
2023-04-02T12:43:29.085Z,99308.05
2023-04-02T12:45:59.084Z,99309.67
2023-04-02T12:48:27.126Z,99310.09
2023-04-02T12:50:55.672Z,99312.05
2023-04-02T12:53:37.591Z,99311.27
2023-04-02T12:56:05.799Z,99308.91
2023-04-02T12:58:37.294Z,99310.33
2023-04-02T13:01:18.131Z,99311.14
2023-04-02T13:04:02.935Z,99316.30
2023-04-02T13:06:30.688Z,99313.77
2023-04-02T13:08:58.690Z,99317.23
2023-04-02T13:11:46.504Z,99316.43
2023-04-02T13:14:17.819Z,99314.70
2023-04-02T13:16:45.654Z,99308.29
2023-04-02T13:19:22.680Z,99309.30
2023-04-02T13:21:51.533Z,99309.90
2023-04-02T13:24:24.493Z,99309.15
2023-04-02T13:26:55.231Z,99305.88
2023-04-02T13:29:31.096Z,99307.08
2023-04-02T13:32:01.654Z,99309.02
2023-04-02T13:34:32.250Z,99307.86
2023-04-02T13:37:03.578Z,99312.73
2023-04-02T13:39:32.546Z,99309.61
2023-04-02T13:42:02.197Z,99309.72
2023-04-02T13:44:31.225Z,99307.27
2023-04-02T13:46:59.159Z,99306.38
2023-04-02T13:49:27.477Z,99307.23
2023-04-02T13:52:05.301Z,99309.36
2023-04-02T13:54:43.836Z,99307.02
2023-04-02T13:57:12.458Z,99309.84
2023-04-02T13:59:42.675Z,99305.98
2023-04-02T14:02:17.454Z,99305.27
2023-04-02T14:04:50.933Z,99311.77
2023-04-02T14:07:28.966Z,99310.16
2023-04-02T14:10:04.244Z,99313.70
2023-04-02T14:13:02.102Z,99313.64
2023-04-02T14:15:50.246Z,99312.90
2023-04-02T14:18:39.283Z,99313.27
2023-04-02T14:21:33.148Z,99320.70
2023-04-02T14:24:30.269Z,99317.59
2023-04-02T14:27:15.259Z,99320.06
2023-04-02T14:30:04.862Z,99322.59
2023-04-02T14:32:59.271Z,99323.63
2023-04-02T14:35:38.362Z,99321.61
2023-04-02T14:38:26.446Z,99324.99
2023-04-02T14:41:38.283Z,99325.56
2023-04-02T14:44:06.861Z,99328.05
2023-04-02T14:46:37.638Z,99327.66
2023-04-02T14:49:15.561Z,99330.31
2023-04-02T14:51:54.813Z,99324.66
2023-04-02T14:54:30.710Z,99329.52
2023-04-02T14:57:04.037Z,99325.69
2023-04-02T14:59:39.548Z,99326.02
2023-04-02T15:02:13.168Z,99330.34
2023-04-02T15:04:44.735Z,99326.46
2023-04-02T15:07:27.666Z,99328.91
2023-04-02T15:10:08.925Z,99332.90
2023-04-02T15:12:37.486Z,99329.48
2023-04-02T15:15:38.900Z,99333.91
2023-04-02T15:18:11.627Z,99334.43
2023-04-02T15:21:25.321Z,99335.55
2023-04-02T15:24:03.203Z,99335.73
2023-04-02T15:26:59.401Z,99336.35
2023-04-02T15:29:46.993Z,99339.73
2023-04-02T15:32:33.462Z,99336.09
2023-04-02T15:35:05.777Z,99332.73
2023-04-02T15:37:35.715Z,99337.46
2023-04-02T15:40:25.176Z,99340.89
2023-04-02T15:43:29.476Z,99336.97
2023-04-02T15:46:11.958Z,99341.23
2023-04-02T15:48:55.434Z,99341.73
2023-04-02T15:51:44.672Z,99341.35
2023-04-02T15:54:31.300Z,99342.85
2023-04-02T15:57:26.523Z,99341.50
2023-04-02T16:00:09.873Z,99342.80
2023-04-02T16:03:08.989Z,99343.54
2023-04-02T16:05:48.402Z,99344.90
2023-04-02T16:08:33.180Z,99345.45
2023-04-02T16:11:01.065Z,99349.68
2023-04-02T16:13:33.093Z,99347.20
2023-04-02T16:16:05.481Z,99347.38
2023-04-02T16:19:16.771Z,99351.45
2023-04-02T16:21:54.681Z,99349.67
2023-04-02T16:24:23.561Z,99355.33
2023-04-02T16:27:03.789Z,99355.73
2023-04-02T16:29:55.947Z,99354.44
2023-04-02T16:32:49.809Z,99354.29
2023-04-02T16:35:41.920Z,99358.81
2023-04-02T16:38:30.129Z,99363.96
2023-04-02T16:41:33.362Z,99365.76
2023-04-02T16:44:20.763Z,99373.95
2023-04-02T16:46:54.551Z,99374.30
2023-04-02T16:49:47.026Z,99376.69
2023-04-02T16:52:30.221Z,99379.94
2023-04-02T16:55:12.686Z,99381.41
2023-04-02T16:58:01.588Z,99384.62
2023-04-02T17:00:44.623Z,99383.98
2023-04-02T17:03:51.002Z,99392.20
2023-04-02T17:06:33.742Z,99391.73
2023-04-02T17:09:16.121Z,99396.97
2023-04-02T17:12:11.680Z,99400.67
2023-04-02T17:14:59.564Z,99403.62
2023-04-02T17:17:27.529Z,99402.42
2023-04-02T17:20:00.122Z,99407.15
2023-04-02T17:22:28.040Z,99408.11
2023-04-02T17:24:57.821Z,99413.23
2023-04-02T17:27:25.959Z,99413.96
2023-04-02T17:29:58.529Z,99417.15
2023-04-02T17:32:29.671Z,99419.07
2023-04-02T17:35:18.289Z,99419.10
2023-04-02T17:38:07.600Z,99426.58
2023-04-02T17:40:40.647Z,99427.61
2023-04-02T17:43:35.088Z,99425.70
2023-04-02T17:46:22.158Z,99425.11
2023-04-02T17:48:57.659Z,99428.60
2023-04-02T17:51:39.449Z,99428.70
2023-04-02T17:54:51.575Z,99428.52
2023-04-02T17:58:11.726Z,99429.80
2023-04-02T18:01:19.109Z,99429.64
2023-04-02T18:03:54.062Z,99427.33
2023-04-02T18:06:28.187Z,99431.59
2023-04-02T18:09:21.865Z,99432.03
2023-04-02T18:12:05.592Z,99428.81
2023-04-02T18:14:35.507Z,99432.04
2023-04-02T18:17:36.034Z,99433.00
2023-04-02T18:20:22.758Z,99436.23
2023-04-02T18:23:13.876Z,99440.65
2023-04-02T18:25:57.544Z,99438.14
2023-04-02T18:29:08.977Z,99431.83
2023-04-02T18:31:41.014Z,99430.46
2023-04-02T18:34:50.531Z,99431.45
2023-04-02T18:37:38.647Z,99434.23
2023-04-02T18:40:51.293Z,99432.52
2023-04-02T18:43:18.941Z,99436.31
2023-04-02T18:45:55.936Z,99436.83
2023-04-02T18:48:43.497Z,99433.20
2023-04-02T18:51:22.303Z,99433.48
2023-04-02T18:54:22.045Z,99434.89
2023-04-02T18:56:50.249Z,99434.02
2023-04-02T18:59:45.627Z,99433.66
2023-04-02T19:02:55.348Z,99435.59
2023-04-02T19:05:23.611Z,99432.32
2023-04-02T19:07:55.291Z,99432.10
2023-04-02T19:10:26.348Z,99436.20
2023-04-02T19:12:59.919Z,99434.05
2023-04-02T19:15:34.929Z,99437.86
2023-04-02T19:18:16.314Z,99434.73
2023-04-02T19:20:56.005Z,99434.67
2023-04-02T19:23:39.271Z,99440.19
2023-04-02T19:26:15.201Z,99440.73
2023-04-02T19:28:52.897Z,99441.25
2023-04-02T19:31:27.696Z,99443.91
2023-04-02T19:34:12.291Z,99446.88
2023-04-02T19:36:58.701Z,99446.15
2023-04-02T19:39:46.785Z,99446.60
2023-04-02T19:42:37.723Z,99449.11
2023-04-02T19:45:21.765Z,99451.61
2023-04-02T19:47:51.218Z,99451.31
2023-04-02T19:50:19.750Z,99448.69
2023-04-02T19:52:47.722Z,99448.86
2023-04-02T19:55:16.127Z,99444.97
2023-04-02T19:57:44.306Z,99445.33
2023-04-02T20:00:15.685Z,99446.75
2023-04-02T20:02:44.353Z,99449.73
2023-04-02T20:05:13.401Z,99449.56
2023-04-02T20:07:41.459Z,99448.00
2023-04-02T20:10:10.591Z,99447.09
2023-04-02T20:12:42.927Z,99447.49
2023-04-02T20:15:12.001Z,99443.10
2023-04-02T20:17:40.854Z,99443.77
2023-04-02T20:20:13.540Z,99443.67
2023-04-02T20:22:42.005Z,99444.42
2023-04-02T20:25:10.578Z,99445.05
2023-04-02T20:27:41.107Z,99444.09
2023-04-02T20:30:11.286Z,99444.83
2023-04-02T20:32:40.322Z,99441.09
2023-04-02T20:35:09.203Z,99442.59
2023-04-02T20:37:41.780Z,99441.13
2023-04-02T20:40:10.646Z,99439.92
2023-04-02T20:42:40.786Z,99443.08
2023-04-02T20:45:09.681Z,99441.39
2023-04-02T20:47:37.552Z,99441.63
2023-04-02T20:50:07.535Z,99442.42
2023-04-02T20:52:35.508Z,99439.48
2023-04-02T20:55:03.500Z,99442.74
2023-04-02T20:57:32.490Z,99442.49
2023-04-02T21:00:03.312Z,99442.88
2023-04-02T21:02:32.217Z,99438.81
2023-04-02T21:05:00.402Z,99443.86
2023-04-02T21:07:28.412Z,99440.30
2023-04-02T21:09:56.199Z,99444.94
2023-04-02T21:12:24.892Z,99448.75
2023-04-02T21:14:57.663Z,99442.34
2023-04-02T21:17:25.853Z,99441.87
2023-04-02T21:19:53.866Z,99442.27
2023-04-02T21:22:21.981Z,99444.61
2023-04-02T21:24:49.756Z,99442.86
2023-04-02T21:27:17.626Z,99442.95
2023-04-02T21:29:45.961Z,99441.47
2023-04-02T21:32:21.360Z,99439.71
2023-04-02T21:34:49.691Z,99441.78
2023-04-02T21:37:17.470Z,99437.34
2023-04-02T21:39:45.417Z,99438.59
2023-04-02T21:42:14.374Z,99438.31
2023-04-02T21:44:42.076Z,99442.50
2023-04-02T21:47:09.801Z,99435.48
2023-04-02T21:49:37.778Z,99431.23
2023-04-02T21:52:05.818Z,99430.77
2023-04-02T21:54:35.116Z,99433.60
2023-04-02T21:57:02.915Z,99429.60
2023-04-02T21:59:30.831Z,99429.84
2023-04-02T22:01:58.906Z,99430.42
2023-04-02T22:04:30.402Z,99431.75
2023-04-02T22:06:58.295Z,99428.88
2023-04-02T22:09:26.752Z,99431.29
2023-04-02T22:11:58.675Z,99430.49
2023-04-02T22:14:27.139Z,99430.69
2023-04-02T22:16:55.137Z,99429.98
2023-04-02T22:19:26.155Z,99431.77
2023-04-02T22:21:53.821Z,99433.16
2023-04-02T22:24:25.585Z,99432.35
2023-04-02T22:26:54.055Z,99434.33
2023-04-02T22:29:21.873Z,99433.05
2023-04-02T22:31:49.760Z,99430.61
2023-04-02T22:34:17.670Z,99432.02
2023-04-02T22:36:45.362Z,99434.64
2023-04-02T22:39:13.326Z,99434.48
2023-04-02T22:41:41.426Z,99432.44
2023-04-02T22:44:14.136Z,99429.00
2023-04-02T22:46:42.997Z,99428.42
2023-04-02T22:49:12.118Z,99424.11
2023-04-02T22:51:39.981Z,99424.18
2023-04-02T22:54:07.847Z,99426.19
2023-04-02T22:56:37.178Z,99428.06
2023-04-02T22:59:05.662Z,99425.44
2023-04-02T23:01:34.433Z,99422.74
2023-04-02T23:04:02.213Z,99422.13
2023-04-02T23:06:30.455Z,99419.05
2023-04-02T23:08:58.481Z,99417.52
2023-04-02T23:11:27.063Z,99416.98
2023-04-02T23:13:56.430Z,99414.77
2023-04-02T23:16:26.501Z,99410.67
2023-04-02T23:18:55.379Z,99413.38
2023-04-02T23:21:24.245Z,99413.17
2023-04-02T23:23:52.099Z,99416.64
2023-04-02T23:26:22.635Z,99412.46
2023-04-02T23:28:50.847Z,99409.77
2023-04-02T23:31:22.039Z,99413.17
2023-04-02T23:33:50.982Z,99409.54
2023-04-02T23:36:22.865Z,99407.34
2023-04-02T23:38:54.990Z,99409.64
2023-04-02T23:41:24.149Z,99409.82
2023-04-02T23:43:52.141Z,99407.46
2023-04-02T23:46:20.508Z,99409.52
2023-04-02T23:48:51.414Z,99409.12
2023-04-02T23:51:19.299Z,99407.33
2023-04-02T23:53:49.082Z,99402.56
2023-04-02T23:56:17.962Z,99399.77
2023-04-02T23:58:45.798Z,99398.52
